Terminal Aerodrome Forecast
Issued by NWS

Home | Current Version | Previous Version | Graphics & Text | Print | Product List | Glossary On
Versions: 1 2 3 4 5 6 7 8 9 10 11 12 13 14 15 16 17
430
FTUS42 KMHX 220557
TAFPGV
TAF
KPGV 220557Z 2206/2306 VRB03KT P6SM -SHRA SCT015 OVC040
     FM220900 VRB04KT 3SM -SHRA SCT007 OVC025
     FM221100 VRB03KT 3SM BR SCT007 OVC010
     FM221400 32008KT P6SM BKN040
     FM222200 35007KT P6SM FEW250
      AMD LTD TO CLD VIS AND WIND=

USA.gov is the U.S. government's official web portal to all federal, state and local government web resources and services.